createdAt,value
2019-01-17T00:01:01.925Z,95407.06
2019-01-17T00:04:03.059Z,95396.77
2019-01-17T00:07:11.641Z,95386.88
2019-01-17T00:13:12.725Z,95392.55
2019-01-17T00:16:21.261Z,95407.06
2019-01-17T00:19:26.179Z,95407.78
2019-01-17T00:22:34.706Z,95417.06
2019-01-17T00:25:37.163Z,95418.03
2019-01-17T00:28:45.719Z,95417.72
2019-01-17T00:31:47.035Z,95411.52
2019-01-17T00:34:55.635Z,95418.50
2019-01-17T00:37:50.162Z,95414.52
2019-01-17T00:40:58.735Z,95426.75
2019-01-17T00:43:57.653Z,95423.08
2019-01-17T00:47:06.474Z,95430.39
2019-01-17T00:50:07.364Z,95438.57
2019-01-17T00:53:16.009Z,95432.20
2019-01-17T00:56:22.381Z,95433.09
2019-01-17T00:59:30.952Z,95432.92
2019-01-17T01:02:22.973Z,95423.73
2019-01-17T01:05:31.498Z,95437.38
2019-01-17T01:08:33.215Z,95428.82
2019-01-17T01:11:30.621Z,95442.20
2019-01-17T01:14:28.862Z,95444.53
2019-01-17T01:17:37.494Z,95451.09
2019-01-17T01:20:46.166Z,95456.98
2019-01-17T01:23:54.792Z,95454.34
2019-01-17T01:27:03.394Z,95458.33
2019-01-17T01:30:07.775Z,95455.16
2019-01-17T01:33:13.537Z,95463.41
2019-01-17T01:36:14.574Z,95468.17
2019-01-17T01:42:46.126Z,95442.14
2019-01-17T01:45:54.712Z,95465.03
2019-01-17T01:48:57.450Z,95466.79
2019-01-17T01:51:52.400Z,95468.29
2019-01-17T01:54:38.923Z,95467.92
2019-01-17T01:57:28.690Z,95474.25
2019-01-17T02:00:10.736Z,95461.33
2019-01-17T02:03:00.517Z,95459.01
2019-01-17T02:05:46.454Z,95434.41
2019-01-17T02:08:36.163Z,95455.47
2019-01-17T02:11:19.430Z,95458.87
2019-01-17T02:14:09.398Z,95450.79
2019-01-17T02:16:56.531Z,95444.27
2019-01-17T02:19:46.307Z,95449.98
2019-01-17T02:22:29.000Z,95433.27
2019-01-17T02:25:18.826Z,95454.75
2019-01-17T02:28:03.062Z,95446.97
2019-01-17T02:30:52.825Z,95445.05
2019-01-17T02:33:42.542Z,95446.81
2019-01-17T02:36:24.990Z,95443.70
2019-01-17T02:39:14.804Z,95441.88
2019-01-17T02:45:01.739Z,95441.25
2019-01-17T02:47:44.072Z,95429.69
2019-01-17T02:50:26.514Z,95416.21
2019-01-17T02:53:35.435Z,95411.95
2019-01-17T02:56:26.049Z,95414.30
2019-01-17T02:59:15.911Z,95388.31
2019-01-17T03:02:05.712Z,95403.30
2019-01-17T03:04:55.625Z,95398.13
2019-01-17T03:07:45.604Z,95393.52
2019-01-17T03:10:35.362Z,95384.12
2019-01-17T03:13:18.029Z,95384.34
2019-01-17T03:16:07.949Z,95384.65
2019-01-17T03:18:49.992Z,95388.78
2019-01-17T03:21:40.244Z,95395.91
2019-01-17T03:24:22.165Z,95392.08
2019-01-17T03:27:11.920Z,95395.12
2019-01-17T03:29:54.315Z,95394.80
2019-01-17T03:32:44.232Z,95387.55
2019-01-17T03:35:34.024Z,95378.59
2019-01-17T03:38:23.864Z,95371.11
2019-01-17T03:41:13.683Z,95365.42
2019-01-17T03:44:03.463Z,95361.77
2019-01-17T03:46:53.230Z,95363.11
2019-01-17T03:49:42.991Z,95350.81
2019-01-17T03:52:32.721Z,95343.45
2019-01-17T03:55:17.293Z,95340.12
2019-01-17T04:01:10.469Z,95338.16
2019-01-17T04:04:00.517Z,95344.31
2019-01-17T04:06:43.474Z,95342.95
2019-01-17T04:09:52.285Z,95343.12
2019-01-17T04:12:35.164Z,95346.38
2019-01-17T04:15:17.713Z,95339.51
2019-01-17T04:18:07.543Z,95336.81
2019-01-17T04:24:00.939Z,95322.65
2019-01-17T04:26:42.919Z,95316.36
2019-01-17T04:29:32.728Z,95320.48
2019-01-17T04:32:22.521Z,95315.52
2019-01-17T04:35:12.394Z,95309.62
2019-01-17T04:37:54.759Z,95318.97
2019-01-17T04:40:44.561Z,95313.84
2019-01-17T04:43:34.397Z,95318.69
2019-01-17T04:46:24.245Z,95315.59
2019-01-17T04:49:14.069Z,95316.38
2019-01-17T04:52:03.864Z,95311.89
2019-01-17T04:54:53.599Z,95297.22
2019-01-17T04:57:43.567Z,95294.08
2019-01-17T05:00:26.053Z,95286.64
2019-01-17T05:03:15.763Z,95295.68
2019-01-17T05:05:58.633Z,95261.15
2019-01-17T05:08:48.410Z,95272.12
2019-01-17T05:11:31.820Z,95271.77
2019-01-17T05:14:21.562Z,95261.50
2019-01-17T05:17:03.546Z,95262.11
2019-01-17T05:19:53.266Z,95248.52
2019-01-17T05:22:41.856Z,95236.50
2019-01-17T05:28:34.671Z,95254.70
2019-01-17T05:31:24.663Z,95277.08
2019-01-17T05:34:06.833Z,95282.36
2019-01-17T05:36:56.918Z,95270.05
2019-01-17T05:39:39.711Z,95280.84
2019-01-17T05:42:29.463Z,95289.17
2019-01-17T05:45:12.270Z,95290.41
2019-01-17T05:48:02.180Z,95284.20
2019-01-17T05:51:10.767Z,95288.82
2019-01-17T06:00:01.813Z,95291.06
2019-01-17T06:05:52.564Z,95284.51
2019-01-17T06:08:36.973Z,95279.70
2019-01-17T06:14:32.106Z,95275.17
2019-01-17T06:20:21.050Z,95267.27
2019-01-17T06:23:10.844Z,95268.31
2019-01-17T06:25:54.674Z,95283.90
2019-01-17T06:28:44.792Z,95268.73
2019-01-17T06:31:34.909Z,95264.11
2019-01-17T06:34:19.026Z,95248.66
2019-01-17T06:37:02.053Z,95234.88
2019-01-17T06:39:52.072Z,95255.62
2019-01-17T06:45:30.878Z,95248.21
2019-01-17T06:48:20.638Z,95242.06
2019-01-17T06:51:02.742Z,95242.63
2019-01-17T06:53:52.800Z,95251.13
2019-01-17T06:56:37.042Z,95247.48
2019-01-17T06:59:26.770Z,95248.83
2019-01-17T07:02:12.480Z,95248.83
2019-01-17T07:07:47.794Z,95220.95
2019-01-17T07:10:37.712Z,95246.17
2019-01-17T07:13:27.536Z,95249.09
2019-01-17T07:16:17.719Z,95243.48
2019-01-17T07:19:00.226Z,95246.17
2019-01-17T07:21:50.021Z,95246.34
2019-01-17T07:24:39.853Z,95251.62
2019-01-17T07:27:29.948Z,95243.36
2019-01-17T07:30:21.934Z,95241.96
2019-01-17T07:33:11.670Z,95232.73
2019-01-17T07:36:01.430Z,95246.05
2019-01-17T07:38:51.198Z,95239.83
2019-01-17T07:41:40.978Z,95236.96
2019-01-17T07:44:30.751Z,95225.98
2019-01-17T07:47:20.546Z,95225.81
2019-01-17T07:50:10.725Z,95227.16
2019-01-17T07:53:00.522Z,95234.09
2019-01-17T07:55:50.271Z,95235.45
2019-01-17T07:58:40.023Z,95235.27
2019-01-17T08:01:29.776Z,95226.77
2019-01-17T08:04:38.639Z,95235.05
2019-01-17T08:07:28.368Z,95244.59
2019-01-17T08:10:11.155Z,95241.72
2019-01-17T08:13:00.907Z,95243.16
2019-01-17T08:15:43.831Z,95241.09
2019-01-17T08:21:26.908Z,95231.47
2019-01-17T08:24:16.779Z,95246.97
2019-01-17T08:30:29.775Z,95236.47
2019-01-17T08:33:14.142Z,95259.42
2019-01-17T08:36:04.075Z,95258.91
2019-01-17T08:39:12.978Z,95239.44
2019-01-17T08:45:06.507Z,95236.36
2019-01-17T08:47:48.453Z,95247.10
2019-01-17T08:50:38.223Z,95255.66
2019-01-17T08:53:39.681Z,95255.33
2019-01-17T08:56:24.803Z,95251.10
2019-01-17T08:59:07.486Z,95248.45
2019-01-17T09:04:43.377Z,95234.94
2019-01-17T09:07:33.123Z,95243.49
2019-01-17T09:10:21.392Z,95240.79
2019-01-17T09:13:11.151Z,95238.63
2019-01-17T09:15:53.331Z,95249.47
2019-01-17T09:21:44.067Z,95252.56
2019-01-17T09:24:33.775Z,95257.80
2019-01-17T09:27:23.506Z,95243.49
2019-01-17T09:33:30.262Z,95251.66
2019-01-17T09:36:20.057Z,95260.20
2019-01-17T09:39:10.262Z,95253.67
2019-01-17T09:42:00.131Z,95255.41
2019-01-17T09:47:33.753Z,95261.05
2019-01-17T09:50:25.148Z,95254.88
2019-01-17T09:56:05.470Z,95255.50
2019-01-17T09:58:55.240Z,95261.70
2019-01-17T10:01:45.031Z,95261.50
2019-01-17T10:04:28.415Z,95261.52
2019-01-17T10:07:11.200Z,95258.20
2019-01-17T10:10:01.141Z,95263.62
2019-01-17T10:15:38.024Z,95266.33
2019-01-17T10:19:00.658Z,95237.09
2019-01-17T10:22:28.570Z,95230.34
2019-01-17T10:28:54.504Z,95261.13
2019-01-17T10:31:56.922Z,95254.95
2019-01-17T10:35:13.860Z,95253.77
2019-01-17T10:38:41.832Z,95265.20
2019-01-17T10:41:50.372Z,95260.73
2019-01-17T10:44:57.936Z,95260.53
2019-01-17T10:50:44.587Z,95259.16
2019-01-17T10:54:12.511Z,95266.50
2019-01-17T10:57:32.873Z,95271.13
2019-01-17T11:00:56.574Z,95278.09
2019-01-17T11:04:24.439Z,95271.88
2019-01-17T11:07:37.898Z,95248.80
2019-01-17T11:10:41.940Z,95258.20
2019-01-17T11:13:43.973Z,95273.27
2019-01-17T11:17:11.898Z,95272.40
2019-01-17T11:23:10.220Z,95280.39
2019-01-17T11:26:38.076Z,95280.89
2019-01-17T11:29:40.064Z,95287.60
2019-01-17T11:33:07.876Z,95278.46
2019-01-17T11:36:22.818Z,95275.32
2019-01-17T11:39:28.174Z,95274.59
2019-01-17T11:42:56.026Z,95275.37
2019-01-17T11:45:59.411Z,95275.07
2019-01-17T11:49:15.994Z,95253.55
2019-01-17T11:52:19.607Z,95270.98
2019-01-17T11:55:25.964Z,95274.28
2019-01-17T11:58:59.781Z,95272.33
2019-01-17T12:01:49.137Z,95275.03
2019-01-17T12:04:38.170Z,95275.98
2019-01-17T12:07:20.125Z,95283.52
2019-01-17T12:10:10.021Z,95278.33
2019-01-17T12:15:55.912Z,95262.44
2019-01-17T12:18:45.636Z,95266.14
2019-01-17T12:21:27.941Z,95269.98
2019-01-17T12:24:17.660Z,95267.14
2019-01-17T12:27:01.986Z,95266.19
2019-01-17T12:29:52.102Z,95267.75
2019-01-17T12:32:41.829Z,95265.05
2019-01-17T12:35:24.701Z,95259.69
2019-01-17T12:38:14.527Z,95262.81
2019-01-17T12:41:04.301Z,95265.52
2019-01-17T12:43:54.053Z,95264.23
2019-01-17T12:46:36.861Z,95260.36
2019-01-17T12:49:26.897Z,95265.34
2019-01-17T12:52:16.635Z,95268.83
2019-01-17T12:55:06.775Z,95256.84
2019-01-17T12:57:56.492Z,95264.98
2019-01-17T13:00:46.319Z,95252.00
2019-01-17T13:03:36.084Z,95275.05
2019-01-17T13:09:21.574Z,95267.51
2019-01-17T13:12:11.317Z,95271.17
2019-01-17T13:20:41.481Z,95272.91
2019-01-17T13:23:31.193Z,95270.07
2019-01-17T13:26:15.065Z,95258.80
2019-01-17T13:29:04.878Z,95273.52
2019-01-17T13:31:54.733Z,95272.17
2019-01-17T13:34:44.553Z,95273.48
2019-01-17T13:37:34.353Z,95271.92
2019-01-17T13:40:24.145Z,95274.09
2019-01-17T13:43:33.013Z,95270.96
2019-01-17T13:46:22.903Z,95267.05
2019-01-17T13:49:31.717Z,95275.72
2019-01-17T13:52:14.549Z,95275.06
2019-01-17T13:55:16.349Z,95285.75
2019-01-17T13:57:58.517Z,95290.75
2019-01-17T14:00:48.313Z,95289.35
2019-01-17T14:03:38.131Z,95297.75
2019-01-17T14:09:33.199Z,95306.42
2019-01-17T14:12:15.655Z,95300.41
2019-01-17T14:18:20.856Z,95304.63
2019-01-17T14:21:10.671Z,95301.53
2019-01-17T14:24:00.418Z,95303.84
2019-01-17T14:26:50.219Z,95302.31
2019-01-17T14:29:39.992Z,95314.06
2019-01-17T14:32:29.779Z,95306.31
2019-01-17T14:35:19.584Z,95299.34
2019-01-17T14:38:09.383Z,95275.67
2019-01-17T14:40:59.326Z,95304.78
2019-01-17T14:43:49.103Z,95307.77
2019-01-17T14:46:38.852Z,95304.98
2019-01-17T14:49:28.582Z,95299.84
2019-01-17T14:52:18.624Z,95330.05
2019-01-17T14:55:08.740Z,95329.09
2019-01-17T14:57:58.495Z,95333.93
2019-01-17T15:00:40.660Z,95334.09
2019-01-17T15:03:30.504Z,95334.27
2019-01-17T15:06:20.223Z,95335.66
2019-01-17T15:09:09.938Z,95342.77
2019-01-17T15:11:59.646Z,95335.97
2019-01-17T15:14:43.442Z,95354.97
2019-01-17T15:17:33.254Z,95356.19
2019-01-17T15:20:16.526Z,95356.28
2019-01-17T15:23:07.484Z,95358.55
2019-01-17T15:25:49.982Z,95337.78
2019-01-17T15:31:41.657Z,95344.70
2019-01-17T15:34:24.464Z,95360.73
2019-01-17T15:37:14.288Z,95340.39
2019-01-17T15:43:21.085Z,95373.89
2019-01-17T15:46:10.828Z,95366.53
2019-01-17T15:48:54.740Z,95354.42
2019-01-17T15:51:44.468Z,95364.23
2019-01-17T15:54:26.731Z,95374.84
2019-01-17T15:57:16.489Z,95359.60
2019-01-17T15:59:59.318Z,95392.33
2019-01-17T16:02:49.026Z,95384.45
2019-01-17T16:05:35.420Z,95368.16
2019-01-17T16:08:25.172Z,95384.28
2019-01-17T16:11:07.454Z,95385.98
2019-01-17T16:13:57.216Z,95391.95
2019-01-17T16:16:40.044Z,95396.32
2019-01-17T16:19:29.763Z,95395.45
2019-01-17T16:22:12.070Z,95395.30
2019-01-17T16:25:01.833Z,95373.25
2019-01-17T16:27:44.012Z,95399.48
2019-01-17T16:30:34.254Z,95398.75
2019-01-17T16:33:16.352Z,95382.20
2019-01-17T16:36:06.188Z,95417.12
2019-01-17T16:38:50.011Z,95428.43
2019-01-17T16:41:39.756Z,95468.29
2019-01-17T16:44:22.244Z,95507.08
2019-01-17T16:47:11.956Z,95494.06
2019-01-17T16:49:54.586Z,95483.54
2019-01-17T16:52:44.318Z,95483.23
2019-01-17T16:55:27.927Z,95486.72
2019-01-17T16:58:17.666Z,95472.98
2019-01-17T17:01:00.166Z,95480.97
2019-01-17T17:03:49.915Z,95509.66
2019-01-17T17:06:31.838Z,95505.21
2019-01-17T17:09:21.580Z,95507.98
2019-01-17T17:12:06.673Z,95518.45
2019-01-17T17:17:57.643Z,95516.81
2019-01-17T17:20:47.708Z,95521.13
2019-01-17T17:23:29.830Z,95515.61
2019-01-17T17:26:19.583Z,95510.72
2019-01-17T17:29:02.063Z,95516.41
2019-01-17T17:31:51.850Z,95529.80
2019-01-17T17:34:34.825Z,95531.84
2019-01-17T17:37:24.545Z,95524.75
2019-01-17T17:43:11.143Z,95552.52
2019-01-17T17:45:41.804Z,95555.86
2019-01-17T17:48:31.497Z,95551.63
2019-01-17T17:51:13.500Z,95552.83
2019-01-17T17:54:15.791Z,95561.80
2019-01-17T17:56:58.445Z,95537.23
2019-01-17T17:59:48.192Z,95545.03
2019-01-17T18:05:39.545Z,95570.80
2019-01-17T18:08:22.250Z,95570.80
2019-01-17T18:11:05.041Z,95550.11
2019-01-17T18:13:47.579Z,95562.38
2019-01-17T18:16:37.469Z,95564.15
2019-01-17T18:19:27.539Z,95567.34
2019-01-17T18:22:17.409Z,95531.62
2019-01-17T18:25:07.449Z,95581.51
2019-01-17T18:27:57.455Z,95562.72
2019-01-17T18:30:47.328Z,95579.94
2019-01-17T18:33:17.985Z,95571.52
2019-01-17T18:36:07.731Z,95580.44
2019-01-17T18:38:50.235Z,95582.80
2019-01-17T18:41:40.077Z,95586.33
2019-01-17T18:44:29.957Z,95587.67
2019-01-17T18:47:19.943Z,95588.04
2019-01-17T18:50:32.068Z,95592.50
2019-01-17T18:53:22.053Z,95585.48
2019-01-17T18:56:11.875Z,95594.48
2019-01-17T18:59:01.837Z,95599.73
2019-01-17T19:01:51.624Z,95589.95
2019-01-17T19:04:41.404Z,95600.44
2019-01-17T19:07:31.333Z,95597.33
2019-01-17T19:10:21.421Z,95593.91
2019-01-17T19:13:11.510Z,95601.50
2019-01-17T19:16:01.786Z,95604.84
2019-01-17T19:18:51.674Z,95583.50
2019-01-17T19:21:41.514Z,95602.65
2019-01-17T19:24:31.295Z,95587.39
2019-01-17T19:27:21.059Z,95617.09
2019-01-17T19:30:03.846Z,95617.32
2019-01-17T19:32:53.743Z,95620.48
2019-01-17T19:35:43.694Z,95624.53
2019-01-17T19:38:33.544Z,95627.70
2019-01-17T19:41:23.384Z,95625.80
2019-01-17T19:44:13.235Z,95623.38
2019-01-17T19:47:03.115Z,95626.16
2019-01-17T19:49:33.764Z,95650.25
2019-01-17T20:06:58.354Z,95676.16
2019-01-17T20:09:48.046Z,95670.20
2019-01-17T20:12:30.384Z,95671.75
2019-01-17T20:15:21.391Z,95651.32
2019-01-17T20:18:04.862Z,95673.55
2019-01-17T20:20:47.414Z,95681.31
2019-01-17T20:23:49.634Z,95694.57
2019-01-17T20:26:34.376Z,95681.02
2019-01-17T20:29:24.146Z,95684.45
2019-01-17T20:32:06.594Z,95686.50
2019-01-17T20:38:10.546Z,95691.88
2019-01-17T20:41:19.436Z,95690.87
2019-01-17T20:44:09.256Z,95669.48
2019-01-17T20:46:59.025Z,95691.88
2019-01-17T20:49:49.164Z,95693.94
2019-01-17T20:52:32.000Z,95684.33
2019-01-17T20:55:23.074Z,95692.67
2019-01-17T20:58:09.186Z,95679.45
2019-01-17T21:04:12.891Z,95698.22
2019-01-17T21:07:05.767Z,95697.43
2019-01-17T21:09:47.442Z,95680.60
2019-01-17T21:12:33.780Z,95697.43
2019-01-17T21:15:17.178Z,95700.84
2019-01-17T21:24:21.460Z,95705.73
2019-01-17T21:27:11.316Z,95704.02
2019-01-17T21:30:01.104Z,95683.71
2019-01-17T21:32:50.796Z,95703.69
2019-01-17T21:35:40.567Z,95706.91
2019-01-17T21:38:30.359Z,95712.48
2019-01-17T21:41:14.034Z,95707.47
2019-01-17T21:44:03.778Z,95693.63
2019-01-17T21:46:46.589Z,95713.80
2019-01-17T21:49:36.324Z,95708.09
2019-01-17T21:52:18.220Z,95706.81
2019-01-17T21:55:08.383Z,95715.70
2019-01-17T21:57:50.905Z,95722.09
2019-01-17T22:00:40.603Z,95720.62
2019-01-17T22:03:24.870Z,95717.70
2019-01-17T22:06:14.694Z,95718.98
2019-01-17T22:08:45.426Z,95729.22
2019-01-17T22:11:16.783Z,95722.69
2019-01-17T22:14:06.670Z,95722.49
2019-01-17T22:16:56.420Z,95723.31
2019-01-17T22:19:39.158Z,95733.39
2019-01-17T22:22:28.931Z,95731.81
2019-01-17T22:25:11.781Z,95705.11
2019-01-17T22:28:01.519Z,95703.08
2019-01-17T22:30:44.244Z,95721.05
2019-01-17T22:33:34.024Z,95711.21
2019-01-17T22:36:16.311Z,95719.28
2019-01-17T22:42:23.667Z,95718.09
2019-01-17T22:45:16.331Z,95716.98
2019-01-17T22:48:06.130Z,95721.88
2019-01-17T22:50:55.952Z,95708.29
2019-01-17T22:53:45.793Z,95708.09
2019-01-17T22:56:35.620Z,95691.72
2019-01-17T22:59:25.437Z,95691.88
2019-01-17T23:02:15.225Z,95688.30
2019-01-17T23:05:05.431Z,95690.27
2019-01-17T23:07:55.265Z,95697.23
2019-01-17T23:10:45.076Z,95694.77
2019-01-17T23:13:34.907Z,95690.03
2019-01-17T23:16:25.585Z,95690.66
2019-01-17T23:19:34.407Z,95680.43
2019-01-17T23:22:17.331Z,95694.92
2019-01-17T23:25:07.127Z,95689.67
2019-01-17T23:27:56.960Z,95695.84
2019-01-17T23:30:47.565Z,95682.00
2019-01-17T23:33:38.351Z,95699.69
2019-01-17T23:36:28.279Z,95703.03
2019-01-17T23:39:11.930Z,95682.59
2019-01-17T23:41:54.480Z,95700.53
2019-01-17T23:44:44.256Z,95690.14
2019-01-17T23:47:34.057Z,95706.57
2019-01-17T23:50:23.874Z,95697.63
2019-01-17T23:53:13.654Z,95708.63
2019-01-17T23:56:03.418Z,95716.57
2019-01-17T23:58:53.248Z,95723.73
